createdAt,value
2023-05-02T00:02:06.638Z,15.49
2023-05-02T00:04:34.804Z,15.49
2023-05-02T00:07:02.761Z,15.47
2023-05-02T00:09:32.038Z,15.47
2023-05-02T00:11:59.971Z,15.45
2023-05-02T00:14:27.822Z,15.31
2023-05-02T00:16:55.775Z,15.41
2023-05-02T00:19:23.682Z,15.39
2023-05-02T00:21:51.739Z,15.38
2023-05-02T00:24:19.702Z,15.36
2023-05-02T00:26:48.962Z,15.36
2023-05-02T00:29:17.310Z,15.33
2023-05-02T00:31:45.168Z,15.30
2023-05-02T00:34:13.089Z,15.24
2023-05-02T00:36:41.148Z,15.17
2023-05-02T00:39:09.834Z,15.13
2023-05-02T00:41:37.768Z,15.07
2023-05-02T00:44:07.236Z,15.01
2023-05-02T00:46:35.222Z,14.95
2023-05-02T00:49:03.181Z,14.89
2023-05-02T00:51:31.116Z,14.75
2023-05-02T00:53:59.019Z,14.87
2023-05-02T00:56:26.900Z,14.88
2023-05-02T00:58:54.827Z,14.90
2023-05-02T01:01:31.005Z,14.90
2023-05-02T01:04:05.901Z,14.90
2023-05-02T01:06:42.226Z,14.89
2023-05-02T01:09:18.594Z,14.87
2023-05-02T01:11:51.225Z,14.84
2023-05-02T01:14:19.139Z,14.81
2023-05-02T01:16:48.406Z,14.81
2023-05-02T01:19:22.565Z,14.82
2023-05-02T01:21:50.435Z,14.69
2023-05-02T01:24:21.531Z,14.58
2023-05-02T01:27:02.669Z,14.47
2023-05-02T01:29:32.081Z,14.43
2023-05-02T01:32:00.071Z,14.43
2023-05-02T01:34:28.147Z,14.39
2023-05-02T01:36:56.015Z,14.36
2023-05-02T01:39:24.225Z,14.31
2023-05-02T01:41:53.488Z,14.30
2023-05-02T01:44:21.543Z,14.28
2023-05-02T01:46:50.849Z,14.22
2023-05-02T01:49:18.765Z,14.25
2023-05-02T01:51:48.242Z,14.23
2023-05-02T01:54:17.150Z,14.23
2023-05-02T01:56:45.616Z,14.22
2023-05-02T01:59:15.368Z,14.18
2023-05-02T02:01:43.632Z,14.14
2023-05-02T02:04:14.169Z,14.09
2023-05-02T02:06:43.523Z,14.02
2023-05-02T02:09:11.548Z,14.05
2023-05-02T02:11:43.998Z,14.05
2023-05-02T02:14:16.078Z,14.08
2023-05-02T02:16:43.996Z,14.03
2023-05-02T02:19:15.467Z,14.01
2023-05-02T02:21:44.248Z,13.98
2023-05-02T02:24:12.117Z,13.96
2023-05-02T02:26:40.022Z,13.92
2023-05-02T02:29:07.898Z,13.98
2023-05-02T02:31:36.117Z,13.98
2023-05-02T02:34:04.251Z,13.96
2023-05-02T02:36:35.452Z,13.93
2023-05-02T02:39:14.949Z,13.89
2023-05-02T02:41:45.948Z,13.84
2023-05-02T02:44:21.508Z,13.79
2023-05-02T02:46:51.754Z,13.74
2023-05-02T02:49:24.986Z,13.73
2023-05-02T02:51:59.652Z,13.74
2023-05-02T02:54:32.133Z,13.72
2023-05-02T02:57:02.868Z,13.75
2023-05-02T02:59:32.800Z,13.76
2023-05-02T03:02:03.681Z,13.70
2023-05-02T03:04:32.391Z,13.70
2023-05-02T03:07:01.728Z,13.67
2023-05-02T03:09:33.619Z,13.65
2023-05-02T03:12:01.534Z,13.61
2023-05-02T03:14:29.391Z,13.60
2023-05-02T03:16:57.280Z,13.56
2023-05-02T03:19:25.180Z,13.56
2023-05-02T03:21:53.056Z,13.54
2023-05-02T03:24:22.320Z,13.53
2023-05-02T03:26:50.222Z,13.48
2023-05-02T03:29:18.077Z,13.46
2023-05-02T03:31:46.069Z,13.46
2023-05-02T03:34:14.027Z,13.45
2023-05-02T03:36:41.903Z,13.44
2023-05-02T03:39:09.780Z,13.47
2023-05-02T03:41:39.018Z,13.47
2023-05-02T03:44:06.861Z,13.46
2023-05-02T03:46:34.845Z,13.45
2023-05-02T03:49:02.811Z,13.45
2023-05-02T03:51:30.650Z,13.46
2023-05-02T03:53:58.541Z,13.48
2023-05-02T03:56:26.480Z,13.50
2023-05-02T03:58:55.744Z,13.55
2023-05-02T04:01:23.705Z,13.55
2023-05-02T04:03:51.726Z,13.53
2023-05-02T04:06:19.641Z,13.50
2023-05-02T04:08:47.533Z,13.51
2023-05-02T04:11:15.706Z,13.56
2023-05-02T04:13:43.532Z,13.58
2023-05-02T04:16:13.012Z,13.56
2023-05-02T04:18:41.269Z,13.56
2023-05-02T04:21:09.841Z,13.53
2023-05-02T04:23:37.788Z,13.50
2023-05-02T04:26:05.989Z,13.48
2023-05-02T04:28:33.939Z,13.46
2023-05-02T04:31:03.299Z,13.46
2023-05-02T04:33:32.695Z,13.45
2023-05-02T04:36:01.220Z,13.42
2023-05-02T04:38:29.126Z,13.41
2023-05-02T04:40:57.078Z,13.38
2023-05-02T04:43:25.059Z,13.37
2023-05-02T04:45:53.053Z,13.37
2023-05-02T04:48:21.723Z,13.34
2023-05-02T04:50:51.029Z,13.39
2023-05-02T04:53:19.024Z,13.45
2023-05-02T04:55:46.909Z,13.47
2023-05-02T04:58:14.766Z,13.52
2023-05-02T05:00:42.647Z,13.54
2023-05-02T05:03:10.762Z,13.64
2023-05-02T05:05:38.931Z,13.75
2023-05-02T05:08:08.873Z,13.91
2023-05-02T05:10:36.823Z,14.03
2023-05-02T05:13:05.437Z,14.18
2023-05-02T05:15:33.344Z,14.30
2023-05-02T05:18:01.324Z,14.41
2023-05-02T05:20:29.196Z,14.52
2023-05-02T05:22:57.199Z,14.62
2023-05-02T05:25:27.013Z,14.68
2023-05-02T05:27:55.852Z,14.73
2023-05-02T05:30:23.768Z,14.80
2023-05-02T05:32:51.776Z,14.88
2023-05-02T05:35:19.740Z,14.98
2023-05-02T05:37:47.651Z,15.06
2023-05-02T05:40:16.860Z,15.16
2023-05-02T05:42:46.135Z,15.26
2023-05-02T05:45:14.912Z,15.36
2023-05-02T05:47:42.884Z,15.42
2023-05-02T05:50:11.340Z,15.48
2023-05-02T05:52:39.265Z,15.53
2023-05-02T05:55:08.311Z,15.58
2023-05-02T05:57:36.410Z,15.62
2023-05-02T06:00:07.410Z,15.66
2023-05-02T06:02:35.491Z,15.71
2023-05-02T06:05:03.657Z,15.73
2023-05-02T06:07:31.743Z,15.77
2023-05-02T06:09:59.967Z,15.85
2023-05-02T06:12:28.199Z,15.95
2023-05-02T06:14:56.098Z,16.01
2023-05-02T06:17:26.577Z,16.12
2023-05-02T06:19:54.767Z,16.17
2023-05-02T06:22:22.676Z,16.20
2023-05-02T06:24:50.548Z,16.24
2023-05-02T06:27:18.514Z,16.29
2023-05-02T06:29:46.426Z,16.41
2023-05-02T06:32:14.354Z,16.55
2023-05-02T06:34:43.728Z,16.67
2023-05-02T06:37:12.101Z,16.77
2023-05-02T06:39:40.054Z,16.83
2023-05-02T06:42:07.922Z,16.90
2023-05-02T06:44:35.848Z,17.00
2023-05-02T06:47:05.503Z,17.15
2023-05-02T06:49:33.552Z,17.29
2023-05-02T06:52:02.784Z,17.42
2023-05-02T06:54:30.655Z,17.52
2023-05-02T06:56:59.013Z,17.56
2023-05-02T06:59:26.974Z,17.63
2023-05-02T07:01:54.880Z,17.64
2023-05-02T07:04:22.993Z,17.65
2023-05-02T07:06:51.176Z,17.65
2023-05-02T07:09:20.452Z,17.64
2023-05-02T07:11:49.251Z,17.63
2023-05-02T07:14:17.120Z,17.55
2023-05-02T07:16:45.226Z,17.49
2023-05-02T07:19:13.204Z,17.46
2023-05-02T07:21:41.333Z,17.42
2023-05-02T07:24:09.225Z,17.43
2023-05-02T07:26:38.565Z,17.39
2023-05-02T07:29:07.143Z,17.41
2023-05-02T07:31:35.109Z,17.39
2023-05-02T07:34:03.016Z,17.46
2023-05-02T07:36:32.637Z,17.47
2023-05-02T07:39:00.975Z,17.50
2023-05-02T07:41:28.988Z,17.52
2023-05-02T07:43:58.416Z,17.58
2023-05-02T07:46:26.816Z,17.58
2023-05-02T07:48:54.991Z,17.63
2023-05-02T07:51:23.015Z,17.64
2023-05-02T07:53:53.141Z,17.66
2023-05-02T07:56:21.320Z,17.68
2023-05-02T07:58:50.111Z,17.64
2023-05-02T08:01:19.369Z,17.67
2023-05-02T08:03:47.777Z,17.71
2023-05-02T08:06:15.742Z,17.78
2023-05-02T08:08:43.716Z,17.86
2023-05-02T08:11:11.674Z,17.92
2023-05-02T08:13:40.002Z,18.00
2023-05-02T08:16:09.151Z,18.06
2023-05-02T08:18:38.555Z,18.09
2023-05-02T08:21:06.774Z,18.13
2023-05-02T08:23:34.860Z,18.24
2023-05-02T08:26:02.879Z,18.32
2023-05-02T08:28:31.124Z,18.42
2023-05-02T08:30:59.192Z,18.50
2023-05-02T08:33:27.430Z,18.57
2023-05-02T08:35:56.797Z,18.52
2023-05-02T08:38:24.772Z,18.68
2023-05-02T08:40:52.722Z,18.78
2023-05-02T08:43:20.863Z,18.89
2023-05-02T08:45:48.810Z,18.97
2023-05-02T08:48:17.404Z,19.03
2023-05-02T08:50:48.320Z,19.10
2023-05-02T08:53:17.766Z,19.22
2023-05-02T08:55:46.181Z,19.32
2023-05-02T08:58:15.529Z,19.44
2023-05-02T09:00:44.919Z,19.55
2023-05-02T09:03:17.963Z,19.58
2023-05-02T09:05:45.827Z,19.69
2023-05-02T09:08:13.780Z,19.78
2023-05-02T09:10:43.168Z,19.85
2023-05-02T09:13:30.254Z,19.98
2023-05-02T09:16:03.614Z,20.09
2023-05-02T09:18:32.432Z,20.24
2023-05-02T09:21:01.212Z,20.47
2023-05-02T09:23:36.087Z,20.67
2023-05-02T09:26:17.960Z,20.82
2023-05-02T09:28:46.596Z,20.92
2023-05-02T09:31:22.926Z,20.98
2023-05-02T09:34:00.100Z,21.08
2023-05-02T09:36:27.963Z,21.11
2023-05-02T09:38:56.346Z,21.12
2023-05-02T09:41:25.608Z,21.20
2023-05-02T09:43:56.561Z,21.26
2023-05-02T09:46:24.471Z,21.31
2023-05-02T09:48:56.284Z,21.38
2023-05-02T09:51:24.763Z,21.51
2023-05-02T09:53:52.685Z,21.69
2023-05-02T09:56:22.141Z,21.86
2023-05-02T09:58:52.306Z,21.95
2023-05-02T10:01:20.611Z,21.99
2023-05-02T10:03:49.150Z,22.02
2023-05-02T10:06:17.690Z,22.05
2023-05-02T10:08:47.558Z,22.09
2023-05-02T10:11:15.546Z,22.12
2023-05-02T10:13:43.475Z,22.17
2023-05-02T10:16:13.794Z,22.23
2023-05-02T10:18:43.847Z,22.28
2023-05-02T10:21:12.906Z,22.38
2023-05-02T10:23:43.426Z,22.49
2023-05-02T10:26:12.177Z,22.68
2023-05-02T10:28:40.152Z,22.79
2023-05-02T10:31:08.117Z,22.87
2023-05-02T10:33:37.472Z,22.91
2023-05-02T10:36:06.156Z,23.02
2023-05-02T10:38:34.130Z,23.09
2023-05-02T10:41:03.099Z,23.13
2023-05-02T10:43:33.344Z,23.41
2023-05-02T10:46:03.409Z,23.62
2023-05-02T10:48:31.301Z,23.76
2023-05-02T10:51:02.376Z,23.95
2023-05-02T10:53:34.758Z,24.06
2023-05-02T10:56:18.719Z,24.09
2023-05-02T10:58:47.184Z,24.02
2023-05-02T11:01:38.173Z,24.07
2023-05-02T11:04:07.204Z,24.07
2023-05-02T11:06:36.966Z,24.09
2023-05-02T11:09:34.250Z,24.16
2023-05-02T11:12:04.895Z,24.09
2023-05-02T11:14:49.684Z,24.08
2023-05-02T11:17:21.147Z,24.19
2023-05-02T11:20:26.560Z,24.30
2023-05-02T11:22:56.640Z,24.35
2023-05-02T11:25:40.210Z,24.22
2023-05-02T11:28:09.461Z,24.25
2023-05-02T11:30:44.783Z,24.48
2023-05-02T11:33:17.598Z,24.69
2023-05-02T11:35:46.834Z,24.93
2023-05-02T11:38:20.560Z,25.07
2023-05-02T11:41:00.868Z,25.16
2023-05-02T11:43:31.578Z,25.03
2023-05-02T11:46:02.171Z,25.27
2023-05-02T11:48:30.489Z,25.74
2023-05-02T11:50:59.016Z,26.25
2023-05-02T11:53:29.460Z,26.66
2023-05-02T11:55:58.299Z,27.11
2023-05-02T11:58:27.037Z,27.43
2023-05-02T12:00:54.993Z,27.79
2023-05-02T12:03:24.191Z,27.82
2023-05-02T12:05:52.651Z,27.77
2023-05-02T12:08:24.875Z,27.71
2023-05-02T12:10:56.544Z,27.60
2023-05-02T12:13:25.082Z,27.38
2023-05-02T12:15:53.403Z,27.32
2023-05-02T12:18:23.511Z,27.23
2023-05-02T12:20:52.263Z,27.11
2023-05-02T12:23:20.958Z,27.13
2023-05-02T12:25:49.551Z,27.60
2023-05-02T12:28:20.531Z,27.79
2023-05-02T12:30:49.592Z,27.86
2023-05-02T12:33:17.923Z,27.90
2023-05-02T12:35:47.430Z,27.76
2023-05-02T12:38:16.701Z,27.65
2023-05-02T12:40:52.138Z,27.47
2023-05-02T12:43:22.029Z,27.71
2023-05-02T12:45:50.061Z,28.15
2023-05-02T12:48:22.170Z,28.37
2023-05-02T12:50:50.235Z,28.19
2023-05-02T12:53:18.129Z,28.08
2023-05-02T12:55:46.932Z,28.22
2023-05-02T12:58:14.835Z,28.28
2023-05-02T13:00:45.733Z,28.31
2023-05-02T13:03:15.684Z,28.38
2023-05-02T13:05:43.613Z,28.36
2023-05-02T13:08:11.570Z,28.14
2023-05-02T13:10:39.491Z,27.96
2023-05-02T13:13:07.825Z,28.16
2023-05-02T13:15:35.704Z,28.56
2023-05-02T13:18:05.240Z,28.69
2023-05-02T13:20:33.245Z,28.63
2023-05-02T13:23:01.151Z,28.52
2023-05-02T13:25:29.070Z,28.48
2023-05-02T13:27:57.093Z,28.48
2023-05-02T13:30:25.028Z,28.63
2023-05-02T13:32:52.964Z,29.05
2023-05-02T13:35:22.244Z,29.56
2023-05-02T13:37:50.176Z,29.95
2023-05-02T13:40:18.166Z,30.27
2023-05-02T13:42:46.076Z,30.62
2023-05-02T13:45:14.614Z,30.73
2023-05-02T13:47:42.529Z,30.82
2023-05-02T13:50:10.621Z,31.19
2023-05-02T13:52:39.852Z,31.57
2023-05-02T13:55:08.265Z,31.45
2023-05-02T13:57:36.178Z,30.95
2023-05-02T14:00:04.775Z,30.72
2023-05-02T14:02:32.911Z,30.64
2023-05-02T14:05:00.943Z,30.82
2023-05-02T14:07:29.479Z,31.12
2023-05-02T14:09:58.904Z,31.41
2023-05-02T14:12:26.976Z,31.58
2023-05-02T14:14:54.873Z,31.72
2023-05-02T14:17:25.385Z,31.91
2023-05-02T14:19:53.371Z,32.09
2023-05-02T14:22:22.483Z,31.83
2023-05-02T14:24:50.416Z,31.50
2023-05-02T14:27:19.711Z,31.10
2023-05-02T14:29:47.707Z,30.81
2023-05-02T14:32:15.816Z,30.58
2023-05-02T14:34:43.895Z,30.52
2023-05-02T14:37:11.933Z,30.79
2023-05-02T14:39:40.442Z,31.04
2023-05-02T14:42:08.441Z,31.32
2023-05-02T14:44:37.879Z,31.65
2023-05-02T14:47:05.921Z,31.66
2023-05-02T14:49:33.885Z,31.62
2023-05-02T14:52:01.721Z,31.50
2023-05-02T14:54:30.308Z,31.23
2023-05-02T14:56:59.645Z,31.05
2023-05-02T14:59:29.713Z,30.87
2023-05-02T15:01:59.010Z,30.59
2023-05-02T15:04:27.942Z,30.34
2023-05-02T15:06:57.155Z,30.20
2023-05-02T15:09:26.627Z,30.05
2023-05-02T15:11:54.643Z,29.87
2023-05-02T15:14:22.517Z,29.79
2023-05-02T15:16:50.861Z,29.82
2023-05-02T15:19:20.322Z,29.85
2023-05-02T15:21:49.829Z,29.83
2023-05-02T15:24:17.736Z,29.90
2023-05-02T15:26:45.707Z,30.07
2023-05-02T15:29:13.546Z,30.23
2023-05-02T15:31:41.477Z,30.46
2023-05-02T15:34:09.593Z,30.63
2023-05-02T15:36:38.857Z,30.67
2023-05-02T15:39:06.782Z,30.72
2023-05-02T15:41:34.722Z,30.64
2023-05-02T15:44:02.600Z,30.62
2023-05-02T15:46:30.497Z,30.58
2023-05-02T15:48:58.406Z,30.56
2023-05-02T15:51:26.913Z,30.60
2023-05-02T15:53:56.576Z,30.66
2023-05-02T15:56:24.459Z,30.69
2023-05-02T15:58:52.341Z,30.73
2023-05-02T16:01:24.169Z,30.69
2023-05-02T16:03:52.203Z,30.67
2023-05-02T16:06:20.188Z,30.79
2023-05-02T16:08:48.096Z,30.79
2023-05-02T16:11:17.489Z,30.60
2023-05-02T16:13:45.370Z,30.42
2023-05-02T16:16:13.234Z,30.15
2023-05-02T16:18:41.220Z,29.97
2023-05-02T16:21:09.274Z,29.84
2023-05-02T16:23:37.164Z,29.70
2023-05-02T16:26:05.117Z,29.61
2023-05-02T16:28:34.385Z,29.53
2023-05-02T16:31:07.580Z,29.38
2023-05-02T16:33:35.614Z,29.13
2023-05-02T16:36:03.871Z,28.78
2023-05-02T16:38:31.807Z,28.60
2023-05-02T16:40:59.697Z,28.67
2023-05-02T16:43:27.579Z,28.67
2023-05-02T16:46:03.346Z,28.67
2023-05-02T16:48:31.296Z,28.77
2023-05-02T16:51:00.985Z,28.79
2023-05-02T16:53:30.598Z,28.65
2023-05-02T16:55:59.549Z,28.33
2023-05-02T16:58:29.206Z,27.96
2023-05-02T17:00:57.251Z,27.65
2023-05-02T17:03:26.864Z,27.33
2023-05-02T17:05:54.970Z,27.23
2023-05-02T17:08:22.870Z,27.32
2023-05-02T17:10:51.510Z,27.63
2023-05-02T17:13:19.545Z,27.98
2023-05-02T17:15:47.516Z,28.30
2023-05-02T17:18:15.704Z,28.46
2023-05-02T17:20:46.013Z,28.41
2023-05-02T17:23:14.618Z,28.04
2023-05-02T17:25:42.796Z,27.89
2023-05-02T17:28:10.714Z,28.02
2023-05-02T17:30:38.626Z,28.14
2023-05-02T17:33:06.824Z,27.99
2023-05-02T17:35:34.770Z,27.55
2023-05-02T17:38:04.029Z,26.86
2023-05-02T17:40:32.018Z,26.32
2023-05-02T17:43:01.674Z,25.74
2023-05-02T17:45:29.962Z,25.27
2023-05-02T17:47:57.987Z,24.86
2023-05-02T17:50:26.213Z,24.56
2023-05-02T17:52:54.440Z,24.31
2023-05-02T17:55:23.702Z,24.06
2023-05-02T17:57:51.618Z,23.76
2023-05-02T18:00:20.102Z,23.48
2023-05-02T18:02:48.081Z,23.24
2023-05-02T18:05:17.511Z,23.09
2023-05-02T18:07:45.491Z,23.01
2023-05-02T18:10:13.441Z,22.91
2023-05-02T18:12:42.692Z,22.72
2023-05-02T18:15:10.849Z,22.54
2023-05-02T18:17:38.871Z,22.41
2023-05-02T18:20:10.109Z,22.35
2023-05-02T18:22:38.191Z,22.31
2023-05-02T18:25:06.897Z,22.28
2023-05-02T18:27:35.026Z,22.20
2023-05-02T18:30:04.607Z,22.07
2023-05-02T18:32:34.538Z,21.89
2023-05-02T18:35:02.804Z,21.76
2023-05-02T18:37:31.998Z,21.64
2023-05-02T18:39:59.884Z,21.52
2023-05-02T18:42:27.869Z,21.45
2023-05-02T18:44:55.779Z,21.35
2023-05-02T18:47:25.534Z,21.21
2023-05-02T18:49:56.353Z,21.10
2023-05-02T18:52:25.477Z,20.99
2023-05-02T18:54:53.375Z,20.90
2023-05-02T18:57:21.622Z,20.82
2023-05-02T18:59:49.660Z,20.74
2023-05-02T19:02:17.533Z,20.66
2023-05-02T19:04:46.893Z,20.60
2023-05-02T19:07:14.754Z,20.51
2023-05-02T19:09:42.627Z,20.45
2023-05-02T19:12:10.657Z,20.35
2023-05-02T19:14:39.657Z,20.23
2023-05-02T19:17:07.728Z,20.14
2023-05-02T19:19:35.662Z,20.09
2023-05-02T19:22:05.090Z,19.98
2023-05-02T19:24:33.683Z,19.95
2023-05-02T19:27:01.638Z,19.85
2023-05-02T19:29:29.522Z,19.80
2023-05-02T19:31:57.602Z,19.73
2023-05-02T19:34:26.084Z,19.64
2023-05-02T19:36:53.970Z,19.56
2023-05-02T19:39:23.479Z,19.44
2023-05-02T19:41:51.368Z,19.35
2023-05-02T19:44:21.291Z,19.25
2023-05-02T19:46:49.139Z,19.17
2023-05-02T19:49:17.022Z,19.11
2023-05-02T19:51:45.133Z,19.04
2023-05-02T19:54:13.134Z,18.99
2023-05-02T19:56:43.168Z,18.91
2023-05-02T19:59:11.253Z,18.85
2023-05-02T20:01:39.197Z,18.81
2023-05-02T20:04:07.269Z,18.76
2023-05-02T20:06:35.287Z,18.70
2023-05-02T20:09:03.828Z,18.63
2023-05-02T20:11:32.854Z,18.59
2023-05-02T20:14:02.172Z,18.54
2023-05-02T20:16:31.442Z,18.54
2023-05-02T20:18:59.491Z,18.50
2023-05-02T20:21:27.915Z,18.48
2023-05-02T20:23:55.807Z,18.41
2023-05-02T20:26:23.747Z,18.38
2023-05-02T20:28:51.663Z,18.30
2023-05-02T20:31:21.054Z,18.24
2023-05-02T20:33:49.094Z,18.17
2023-05-02T20:36:18.148Z,18.12
2023-05-02T20:38:48.013Z,18.10
2023-05-02T20:41:15.934Z,18.04
2023-05-02T20:43:44.932Z,18.00
2023-05-02T20:46:13.620Z,17.98
2023-05-02T20:48:43.010Z,17.97
2023-05-02T20:51:10.984Z,17.94
2023-05-02T20:53:39.117Z,17.84
2023-05-02T20:56:07.353Z,17.77
2023-05-02T20:58:35.245Z,17.76
2023-05-02T21:01:03.425Z,17.74
2023-05-02T21:03:32.184Z,17.70
2023-05-02T21:06:01.535Z,17.67
2023-05-02T21:08:29.469Z,17.65
2023-05-02T21:10:57.382Z,17.65
2023-05-02T21:13:25.320Z,17.54
2023-05-02T21:15:53.326Z,17.61
2023-05-02T21:18:22.285Z,17.54
2023-05-02T21:20:50.191Z,17.52
2023-05-02T21:23:19.478Z,17.47
2023-05-02T21:25:47.405Z,17.50
2023-05-02T21:28:15.303Z,17.47
2023-05-02T21:30:43.195Z,17.46
2023-05-02T21:33:11.097Z,17.48
2023-05-02T21:35:39.039Z,17.44
2023-05-02T21:38:07.641Z,17.45
2023-05-02T21:40:38.093Z,17.44
2023-05-02T21:43:06.013Z,17.41
2023-05-02T21:45:34.784Z,17.40
2023-05-02T21:48:02.793Z,17.35
2023-05-02T21:50:30.704Z,17.33
2023-05-02T21:52:58.719Z,17.29
2023-05-02T21:55:26.780Z,17.28
2023-05-02T21:57:56.087Z,17.23
2023-05-02T22:00:24.277Z,17.20
2023-05-02T22:02:52.457Z,17.19
2023-05-02T22:05:21.602Z,17.16
2023-05-02T22:07:49.660Z,17.12
2023-05-02T22:10:17.914Z,17.10
2023-05-02T22:12:46.530Z,17.09
2023-05-02T22:15:16.291Z,17.08
2023-05-02T22:17:45.984Z,17.05
2023-05-02T22:20:14.313Z,17.03
2023-05-02T22:22:42.485Z,16.99
2023-05-02T22:25:10.893Z,16.97
2023-05-02T22:27:38.834Z,16.98
2023-05-02T22:30:08.345Z,16.98
2023-05-02T22:32:37.663Z,16.94
2023-05-02T22:35:06.879Z,16.93
2023-05-02T22:37:34.792Z,16.92
2023-05-02T22:40:03.016Z,16.93
2023-05-02T22:42:31.271Z,16.95
2023-05-02T22:44:59.181Z,16.96
2023-05-02T22:47:29.208Z,17.02
2023-05-02T22:49:59.887Z,17.05
2023-05-02T22:52:28.332Z,17.05
2023-05-02T22:54:56.201Z,17.07
2023-05-02T22:57:24.496Z,17.10
2023-05-02T22:59:52.374Z,17.08
2023-05-02T23:02:20.883Z,17.09
2023-05-02T23:04:48.853Z,17.06
2023-05-02T23:07:18.086Z,17.08
2023-05-02T23:09:45.991Z,17.05
2023-05-02T23:12:13.984Z,17.05
2023-05-02T23:14:41.939Z,17.04
2023-05-02T23:17:09.839Z,17.01
2023-05-02T23:19:37.948Z,17.00
2023-05-02T23:22:05.916Z,16.99
2023-05-02T23:24:35.229Z,16.98
2023-05-02T23:27:03.814Z,16.97
2023-05-02T23:29:31.691Z,16.97
2023-05-02T23:31:59.568Z,16.97
2023-05-02T23:34:27.572Z,16.98
2023-05-02T23:36:55.561Z,17.00
2023-05-02T23:39:23.787Z,16.99
2023-05-02T23:41:53.079Z,16.95
2023-05-02T23:44:20.927Z,16.98
2023-05-02T23:46:48.941Z,17.01
2023-05-02T23:49:17.176Z,17.00
2023-05-02T23:51:45.128Z,16.96
2023-05-02T23:54:13.004Z,16.95
2023-05-02T23:56:40.896Z,16.96
2023-05-02T23:59:10.114Z,16.96
